sensor_id;sensor_type;location;lat;lon;timestamp;P1;durP1;ratioP1;P2;durP2;ratioP2
84373;SDS011;74563;52.206;14.630;2024-03-08T00:00:12;28.90;;;11.95;;
84373;SDS011;74563;52.206;14.630;2024-03-08T00:05:05;28.27;;;11.00;;
84373;SDS011;74563;52.206;14.630;2024-03-08T00:07:31;25.50;;;10.68;;
84373;SDS011;74563;52.206;14.630;2024-03-08T00:09:56;28.63;;;11.10;;
84373;SDS011;74563;52.206;14.630;2024-03-08T00:12:21;31.57;;;12.60;;
84373;SDS011;74563;52.206;14.630;2024-03-08T00:14:46;32.67;;;11.90;;
84373;SDS011;74563;52.206;14.630;2024-03-08T00:17:12;31.10;;;13.53;;
84373;SDS011;74563;52.206;14.630;2024-03-08T00:19:37;30.00;;;12.23;;
84373;SDS011;74563;52.206;14.630;2024-03-08T00:22:02;29.60;;;11.80;;
84373;SDS011;74563;52.206;14.630;2024-03-08T00:24:27;27.20;;;11.20;;
84373;SDS011;74563;52.206;14.630;2024-03-08T00:26:53;29.58;;;12.27;;
84373;SDS011;74563;52.206;14.630;2024-03-08T00:29:19;33.97;;;13.88;;
84373;SDS011;74563;52.206;14.630;2024-03-08T00:31:44;33.00;;;13.47;;
84373;SDS011;74563;52.206;14.630;2024-03-08T00:34:09;35.93;;;13.83;;
84373;SDS011;74563;52.206;14.630;2024-03-08T00:36:36;29.92;;;11.88;;
84373;SDS011;74563;52.206;14.630;2024-03-08T00:39:02;34.20;;;12.45;;
84373;SDS011;74563;52.206;14.630;2024-03-08T00:41:31;34.90;;;12.65;;
84373;SDS011;74563;52.206;14.630;2024-03-08T00:43:56;31.27;;;11.70;;
84373;SDS011;74563;52.206;14.630;2024-03-08T00:46:21;35.33;;;11.87;;
84373;SDS011;74563;52.206;14.630;2024-03-08T00:48:47;30.63;;;11.97;;
84373;SDS011;74563;52.206;14.630;2024-03-08T00:51:12;33.70;;;12.30;;
84373;SDS011;74563;52.206;14.630;2024-03-08T00:53:37;31.65;;;11.40;;
84373;SDS011;74563;52.206;14.630;2024-03-08T00:56:03;33.00;;;12.33;;
84373;SDS011;74563;52.206;14.630;2024-03-08T00:58:29;34.60;;;12.25;;
84373;SDS011;74563;52.206;14.630;2024-03-08T01:00:55;30.50;;;11.55;;
84373;SDS011;74563;52.206;14.630;2024-03-08T01:03:22;35.78;;;14.20;;
84373;SDS011;74563;52.206;14.630;2024-03-08T01:05:47;30.20;;;11.40;;
84373;SDS011;74563;52.206;14.630;2024-03-08T01:08:12;34.10;;;13.23;;
84373;SDS011;74563;52.206;14.630;2024-03-08T01:10:38;36.10;;;12.38;;
84373;SDS011;74563;52.206;14.630;2024-03-08T01:13:03;35.60;;;12.60;;
84373;SDS011;74563;52.206;14.630;2024-03-08T01:15:28;34.28;;;12.52;;
84373;SDS011;74563;52.206;14.630;2024-03-08T01:17:54;53.50;;;23.40;;
84373;SDS011;74563;52.206;14.630;2024-03-08T01:20:19;36.67;;;13.00;;
84373;SDS011;74563;52.206;14.630;2024-03-08T01:22:46;33.47;;;12.55;;
84373;SDS011;74563;52.206;14.630;2024-03-08T01:25:11;35.97;;;13.80;;
84373;SDS011;74563;52.206;14.630;2024-03-08T01:27:36;38.00;;;13.10;;
84373;SDS011;74563;52.206;14.630;2024-03-08T01:30:02;35.20;;;11.80;;
84373;SDS011;74563;52.206;14.630;2024-03-08T01:32:28;33.40;;;12.27;;
84373;SDS011;74563;52.206;14.630;2024-03-08T01:34:54;28.30;;;11.37;;
84373;SDS011;74563;52.206;14.630;2024-03-08T01:37:19;36.77;;;13.50;;
84373;SDS011;74563;52.206;14.630;2024-03-08T01:39:44;36.47;;;12.70;;
84373;SDS011;74563;52.206;14.630;2024-03-08T01:42:10;33.70;;;13.18;;
84373;SDS011;74563;52.206;14.630;2024-03-08T01:44:37;30.75;;;11.45;;
84373;SDS011;74563;52.206;14.630;2024-03-08T01:47:03;34.33;;;12.82;;
84373;SDS011;74563;52.206;14.630;2024-03-08T01:49:28;35.58;;;12.27;;
84373;SDS011;74563;52.206;14.630;2024-03-08T01:51:54;34.42;;;12.38;;
84373;SDS011;74563;52.206;14.630;2024-03-08T01:54:21;37.55;;;13.82;;
84373;SDS011;74563;52.206;14.630;2024-03-08T01:56:48;30.75;;;12.07;;
84373;SDS011;74563;52.206;14.630;2024-03-08T01:59:13;35.95;;;13.70;;
84373;SDS011;74563;52.206;14.630;2024-03-08T02:01:39;35.75;;;13.40;;
84373;SDS011;74563;52.206;14.630;2024-03-08T02:04:05;36.83;;;13.80;;
84373;SDS011;74563;52.206;14.630;2024-03-08T02:06:32;34.05;;;12.68;;
84373;SDS011;74563;52.206;14.630;2024-03-08T02:08:57;33.40;;;12.30;;
84373;SDS011;74563;52.206;14.630;2024-03-08T02:11:23;38.25;;;13.55;;
84373;SDS011;74563;52.206;14.630;2024-03-08T02:13:48;36.63;;;12.45;;
84373;SDS011;74563;52.206;14.630;2024-03-08T02:16:19;33.87;;;14.17;;
84373;SDS011;74563;52.206;14.630;2024-03-08T02:18:45;32.92;;;12.25;;
84373;SDS011;74563;52.206;14.630;2024-03-08T02:21:11;42.23;;;15.67;;
84373;SDS011;74563;52.206;14.630;2024-03-08T02:23:36;35.17;;;12.82;;
84373;SDS011;74563;52.206;14.630;2024-03-08T02:26:02;36.17;;;12.82;;
84373;SDS011;74563;52.206;14.630;2024-03-08T02:28:29;36.60;;;12.75;;
84373;SDS011;74563;52.206;14.630;2024-03-08T02:30:55;35.60;;;12.57;;
84373;SDS011;74563;52.206;14.630;2024-03-08T02:33:21;34.15;;;13.15;;
84373;SDS011;74563;52.206;14.630;2024-03-08T02:35:47;33.47;;;12.95;;
84373;SDS011;74563;52.206;14.630;2024-03-08T02:38:17;38.47;;;14.05;;
84373;SDS011;74563;52.206;14.630;2024-03-08T02:40:47;33.95;;;12.00;;
84373;SDS011;74563;52.206;14.630;2024-03-08T02:43:13;37.28;;;13.52;;
84373;SDS011;74563;52.206;14.630;2024-03-08T02:45:40;35.83;;;12.15;;
84373;SDS011;74563;52.206;14.630;2024-03-08T02:48:07;34.65;;;13.25;;
84373;SDS011;74563;52.206;14.630;2024-03-08T02:50:33;35.92;;;12.30;;
84373;SDS011;74563;52.206;14.630;2024-03-08T02:52:59;33.67;;;12.55;;
84373;SDS011;74563;52.206;14.630;2024-03-08T02:55:25;37.20;;;13.02;;
84373;SDS011;74563;52.206;14.630;2024-03-08T02:57:51;38.92;;;13.70;;
84373;SDS011;74563;52.206;14.630;2024-03-08T03:00:17;41.58;;;15.15;;
84373;SDS011;74563;52.206;14.630;2024-03-08T03:02:44;39.05;;;13.70;;
84373;SDS011;74563;52.206;14.630;2024-03-08T03:05:09;38.83;;;14.93;;
84373;SDS011;74563;52.206;14.630;2024-03-08T03:10:02;40.65;;;14.52;;
84373;SDS011;74563;52.206;14.630;2024-03-08T03:12:28;52.67;;;18.98;;
84373;SDS011;74563;52.206;14.630;2024-03-08T03:14:55;36.88;;;13.82;;
84373;SDS011;74563;52.206;14.630;2024-03-08T03:17:21;40.10;;;14.48;;
84373;SDS011;74563;52.206;14.630;2024-03-08T03:19:47;40.30;;;13.07;;
84373;SDS011;74563;52.206;14.630;2024-03-08T03:22:12;40.63;;;15.53;;
84373;SDS011;74563;52.206;14.630;2024-03-08T03:24:38;38.63;;;13.57;;
84373;SDS011;74563;52.206;14.630;2024-03-08T03:27:06;36.95;;;12.93;;
84373;SDS011;74563;52.206;14.630;2024-03-08T03:29:36;41.10;;;14.15;;
84373;SDS011;74563;52.206;14.630;2024-03-08T03:32:04;38.38;;;13.13;;
84373;SDS011;74563;52.206;14.630;2024-03-08T03:34:30;37.77;;;12.97;;
84373;SDS011;74563;52.206;14.630;2024-03-08T03:36:55;34.97;;;12.80;;
84373;SDS011;74563;52.206;14.630;2024-03-08T03:39:20;36.67;;;13.85;;
84373;SDS011;74563;52.206;14.630;2024-03-08T03:41:47;34.45;;;12.98;;
84373;SDS011;74563;52.206;14.630;2024-03-08T03:44:16;38.60;;;14.48;;
84373;SDS011;74563;52.206;14.630;2024-03-08T03:46:42;38.22;;;14.77;;
84373;SDS011;74563;52.206;14.630;2024-03-08T03:49:09;32.72;;;13.32;;
84373;SDS011;74563;52.206;14.630;2024-03-08T03:51:34;40.87;;;14.43;;
84373;SDS011;74563;52.206;14.630;2024-03-08T03:53:59;38.53;;;14.23;;
84373;SDS011;74563;52.206;14.630;2024-03-08T03:56:25;37.63;;;13.77;;
84373;SDS011;74563;52.206;14.630;2024-03-08T04:01:16;35.27;;;13.20;;
84373;SDS011;74563;52.206;14.630;2024-03-08T04:03:42;37.60;;;12.20;;
84373;SDS011;74563;52.206;14.630;2024-03-08T04:06:08;37.45;;;13.38;;
84373;SDS011;74563;52.206;14.630;2024-03-08T04:08:33;34.13;;;12.95;;
84373;SDS011;74563;52.206;14.630;2024-03-08T04:10:59;34.88;;;12.27;;
84373;SDS011;74563;52.206;14.630;2024-03-08T04:13:25;44.95;;;15.07;;
84373;SDS011;74563;52.206;14.630;2024-03-08T04:15:51;40.17;;;14.23;;
84373;SDS011;74563;52.206;14.630;2024-03-08T04:18:16;42.90;;;15.27;;
84373;SDS011;74563;52.206;14.630;2024-03-08T04:20:43;38.63;;;13.43;;
84373;SDS011;74563;52.206;14.630;2024-03-08T04:23:08;43.60;;;16.13;;
84373;SDS011;74563;52.206;14.630;2024-03-08T04:25:33;49.72;;;15.88;;
84373;SDS011;74563;52.206;14.630;2024-03-08T04:27:59;39.92;;;14.48;;
84373;SDS011;74563;52.206;14.630;2024-03-08T04:30:24;43.07;;;14.63;;
84373;SDS011;74563;52.206;14.630;2024-03-08T04:32:49;35.20;;;13.32;;
84373;SDS011;74563;52.206;14.630;2024-03-08T04:35:15;46.85;;;15.50;;
84373;SDS011;74563;52.206;14.630;2024-03-08T04:37:41;39.58;;;14.30;;
84373;SDS011;74563;52.206;14.630;2024-03-08T04:40:06;44.60;;;14.83;;
84373;SDS011;74563;52.206;14.630;2024-03-08T04:42:32;37.33;;;13.05;;
84373;SDS011;74563;52.206;14.630;2024-03-08T04:44:58;36.83;;;12.88;;
84373;SDS011;74563;52.206;14.630;2024-03-08T04:47:23;38.30;;;14.13;;
84373;SDS011;74563;52.206;14.630;2024-03-08T04:49:49;43.80;;;15.27;;
84373;SDS011;74563;52.206;14.630;2024-03-08T04:52:15;49.35;;;17.02;;
84373;SDS011;74563;52.206;14.630;2024-03-08T04:54:41;44.22;;;16.30;;
84373;SDS011;74563;52.206;14.630;2024-03-08T04:57:06;46.42;;;15.82;;
84373;SDS011;74563;52.206;14.630;2024-03-08T04:59:32;43.45;;;15.57;;
84373;SDS011;74563;52.206;14.630;2024-03-08T05:01:57;41.93;;;14.83;;
84373;SDS011;74563;52.206;14.630;2024-03-08T05:04:23;40.60;;;14.53;;
84373;SDS011;74563;52.206;14.630;2024-03-08T05:06:48;54.70;;;20.37;;
84373;SDS011;74563;52.206;14.630;2024-03-08T05:09:13;39.23;;;15.17;;
84373;SDS011;74563;52.206;14.630;2024-03-08T05:11:40;32.40;;;12.75;;
84373;SDS011;74563;52.206;14.630;2024-03-08T05:14:12;43.30;;;14.63;;
84373;SDS011;74563;52.206;14.630;2024-03-08T05:16:41;42.75;;;15.95;;
84373;SDS011;74563;52.206;14.630;2024-03-08T05:19:18;47.97;;;17.83;;
84373;SDS011;74563;52.206;14.630;2024-03-08T05:21:45;51.00;;;18.58;;
84373;SDS011;74563;52.206;14.630;2024-03-08T05:24:11;44.03;;;16.83;;
84373;SDS011;74563;52.206;14.630;2024-03-08T05:26:36;44.13;;;15.02;;
84373;SDS011;74563;52.206;14.630;2024-03-08T05:29:04;48.42;;;16.52;;
84373;SDS011;74563;52.206;14.630;2024-03-08T05:31:30;50.05;;;16.98;;
84373;SDS011;74563;52.206;14.630;2024-03-08T05:34:19;51.08;;;17.95;;
84373;SDS011;74563;52.206;14.630;2024-03-08T05:39:15;53.77;;;20.13;;
84373;SDS011;74563;52.206;14.630;2024-03-08T05:41:43;44.22;;;17.23;;
84373;SDS011;74563;52.206;14.630;2024-03-08T05:44:09;55.33;;;17.55;;
84373;SDS011;74563;52.206;14.630;2024-03-08T05:46:35;48.55;;;15.75;;
84373;SDS011;74563;52.206;14.630;2024-03-08T05:49:04;39.35;;;14.13;;
84373;SDS011;74563;52.206;14.630;2024-03-08T05:51:34;45.83;;;16.67;;
84373;SDS011;74563;52.206;14.630;2024-03-08T05:54:00;43.95;;;15.80;;
84373;SDS011;74563;52.206;14.630;2024-03-08T05:56:27;40.40;;;15.05;;
84373;SDS011;74563;52.206;14.630;2024-03-08T05:58:54;47.40;;;17.27;;
84373;SDS011;74563;52.206;14.630;2024-03-08T06:01:19;48.17;;;17.70;;
84373;SDS011;74563;52.206;14.630;2024-03-08T06:03:44;72.60;;;24.37;;
84373;SDS011;74563;52.206;14.630;2024-03-08T06:06:13;66.38;;;22.90;;
84373;SDS011;74563;52.206;14.630;2024-03-08T06:08:39;64.25;;;22.00;;
84373;SDS011;74563;52.206;14.630;2024-03-08T06:11:04;73.03;;;24.92;;
84373;SDS011;74563;52.206;14.630;2024-03-08T06:13:31;57.55;;;19.02;;
84373;SDS011;74563;52.206;14.630;2024-03-08T06:15:57;67.18;;;21.15;;
84373;SDS011;74563;52.206;14.630;2024-03-08T06:18:22;85.30;;;26.23;;
84373;SDS011;74563;52.206;14.630;2024-03-08T06:20:47;42.43;;;15.50;;
84373;SDS011;74563;52.206;14.630;2024-03-08T06:23:13;39.35;;;15.23;;
84373;SDS011;74563;52.206;14.630;2024-03-08T06:25:42;59.10;;;16.63;;
84373;SDS011;74563;52.206;14.630;2024-03-08T06:28:08;54.80;;;19.80;;
84373;SDS011;74563;52.206;14.630;2024-03-08T06:30:33;48.80;;;17.87;;
84373;SDS011;74563;52.206;14.630;2024-03-08T06:35:24;61.20;;;21.40;;
84373;SDS011;74563;52.206;14.630;2024-03-08T06:37:50;51.57;;;19.53;;
84373;SDS011;74563;52.206;14.630;2024-03-08T06:40:15;63.00;;;22.40;;
84373;SDS011;74563;52.206;14.630;2024-03-08T06:42:41;55.90;;;20.98;;
84373;SDS011;74563;52.206;14.630;2024-03-08T06:45:06;56.80;;;20.00;;
84373;SDS011;74563;52.206;14.630;2024-03-08T06:47:34;55.45;;;19.35;;
84373;SDS011;74563;52.206;14.630;2024-03-08T06:49:59;54.33;;;19.10;;
84373;SDS011;74563;52.206;14.630;2024-03-08T06:52:24;44.22;;;15.35;;
84373;SDS011;74563;52.206;14.630;2024-03-08T06:54:50;37.63;;;12.95;;
84373;SDS011;74563;52.206;14.630;2024-03-08T06:57:17;30.60;;;11.50;;
84373;SDS011;74563;52.206;14.630;2024-03-08T06:59:42;38.75;;;13.90;;
84373;SDS011;74563;52.206;14.630;2024-03-08T07:02:08;39.45;;;14.80;;
84373;SDS011;74563;52.206;14.630;2024-03-08T07:04:34;28.27;;;12.20;;
84373;SDS011;74563;52.206;14.630;2024-03-08T07:07:02;37.28;;;14.27;;
84373;SDS011;74563;52.206;14.630;2024-03-08T07:09:34;31.92;;;12.82;;
84373;SDS011;74563;52.206;14.630;2024-03-08T07:12:00;32.63;;;12.20;;
84373;SDS011;74563;52.206;14.630;2024-03-08T07:14:26;61.10;;;23.17;;
84373;SDS011;74563;52.206;14.630;2024-03-08T07:16:52;37.72;;;13.82;;
84373;SDS011;74563;52.206;14.630;2024-03-08T07:19:17;31.35;;;12.60;;
84373;SDS011;74563;52.206;14.630;2024-03-08T07:24:09;39.17;;;13.50;;
84373;SDS011;74563;52.206;14.630;2024-03-08T07:26:41;36.70;;;14.70;;
84373;SDS011;74563;52.206;14.630;2024-03-08T07:29:06;42.80;;;16.10;;
84373;SDS011;74563;52.206;14.630;2024-03-08T07:31:33;43.13;;;15.63;;
84373;SDS011;74563;52.206;14.630;2024-03-08T07:34:07;43.90;;;15.60;;
84373;SDS011;74563;52.206;14.630;2024-03-08T07:36:33;38.30;;;14.25;;
84373;SDS011;74563;52.206;14.630;2024-03-08T07:38:59;44.58;;;17.83;;
84373;SDS011;74563;52.206;14.630;2024-03-08T07:41:25;44.28;;;17.75;;
84373;SDS011;74563;52.206;14.630;2024-03-08T07:43:50;40.95;;;16.48;;
84373;SDS011;74563;52.206;14.630;2024-03-08T07:46:17;52.70;;;21.52;;
84373;SDS011;74563;52.206;14.630;2024-03-08T07:51:09;43.83;;;17.05;;
84373;SDS011;74563;52.206;14.630;2024-03-08T07:53:37;47.13;;;16.30;;
84373;SDS011;74563;52.206;14.630;2024-03-08T07:56:03;38.70;;;15.25;;
84373;SDS011;74563;52.206;14.630;2024-03-08T07:58:29;41.05;;;15.77;;
84373;SDS011;74563;52.206;14.630;2024-03-08T08:00:55;40.50;;;16.03;;
84373;SDS011;74563;52.206;14.630;2024-03-08T08:03:20;44.73;;;18.33;;
84373;SDS011;74563;52.206;14.630;2024-03-08T08:05:45;43.05;;;16.38;;
84373;SDS011;74563;52.206;14.630;2024-03-08T08:08:11;44.00;;;17.38;;
84373;SDS011;74563;52.206;14.630;2024-03-08T08:10:37;39.17;;;15.07;;
84373;SDS011;74563;52.206;14.630;2024-03-08T08:13:02;57.42;;;24.88;;
84373;SDS011;74563;52.206;14.630;2024-03-08T08:15:29;38.95;;;16.17;;
84373;SDS011;74563;52.206;14.630;2024-03-08T08:17:54;44.35;;;17.08;;
84373;SDS011;74563;52.206;14.630;2024-03-08T08:20:20;46.27;;;19.20;;
84373;SDS011;74563;52.206;14.630;2024-03-08T08:22:46;40.95;;;17.48;;
84373;SDS011;74563;52.206;14.630;2024-03-08T08:25:13;47.92;;;19.80;;
84373;SDS011;74563;52.206;14.630;2024-03-08T08:27:40;42.67;;;18.88;;
84373;SDS011;74563;52.206;14.630;2024-03-08T08:30:08;47.25;;;17.33;;
84373;SDS011;74563;52.206;14.630;2024-03-08T08:32:34;46.03;;;19.67;;
84373;SDS011;74563;52.206;14.630;2024-03-08T08:35:01;42.97;;;18.67;;
84373;SDS011;74563;52.206;14.630;2024-03-08T08:37:27;45.30;;;19.40;;
84373;SDS011;74563;52.206;14.630;2024-03-08T08:39:53;50.15;;;19.50;;
84373;SDS011;74563;52.206;14.630;2024-03-08T08:42:19;46.72;;;20.83;;
84373;SDS011;74563;52.206;14.630;2024-03-08T08:44:44;42.73;;;18.60;;
84373;SDS011;74563;52.206;14.630;2024-03-08T08:47:09;41.25;;;18.60;;
84373;SDS011;74563;52.206;14.630;2024-03-08T08:49:35;37.27;;;17.43;;
84373;SDS011;74563;52.206;14.630;2024-03-08T08:52:00;39.87;;;16.57;;
84373;SDS011;74563;52.206;14.630;2024-03-08T08:54:26;38.80;;;17.55;;
84373;SDS011;74563;52.206;14.630;2024-03-08T08:56:52;36.28;;;15.73;;
84373;SDS011;74563;52.206;14.630;2024-03-08T08:59:18;40.92;;;17.73;;
84373;SDS011;74563;52.206;14.630;2024-03-08T09:01:50;36.65;;;16.77;;
84373;SDS011;74563;52.206;14.630;2024-03-08T09:04:17;36.78;;;16.42;;
84373;SDS011;74563;52.206;14.630;2024-03-08T09:06:42;32.43;;;12.50;;
84373;SDS011;74563;52.206;14.630;2024-03-08T09:09:08;35.60;;;15.48;;
84373;SDS011;74563;52.206;14.630;2024-03-08T09:11:35;31.02;;;14.18;;
84373;SDS011;74563;52.206;14.630;2024-03-08T09:14:01;31.02;;;14.80;;
84373;SDS011;74563;52.206;14.630;2024-03-08T09:16:30;53.47;;;28.88;;
84373;SDS011;74563;52.206;14.630;2024-03-08T09:18:56;30.23;;;14.88;;
84373;SDS011;74563;52.206;14.630;2024-03-08T09:21:22;30.98;;;15.45;;
84373;SDS011;74563;52.206;14.630;2024-03-08T09:23:47;30.17;;;14.13;;
84373;SDS011;74563;52.206;14.630;2024-03-08T09:26:12;28.13;;;13.00;;
84373;SDS011;74563;52.206;14.630;2024-03-08T09:28:38;30.67;;;13.13;;
84373;SDS011;74563;52.206;14.630;2024-03-08T09:31:03;29.35;;;14.30;;
84373;SDS011;74563;52.206;14.630;2024-03-08T09:33:30;28.70;;;14.50;;
84373;SDS011;74563;52.206;14.630;2024-03-08T09:35:56;33.38;;;13.88;;
84373;SDS011;74563;52.206;14.630;2024-03-08T09:40:47;29.33;;;13.30;;
84373;SDS011;74563;52.206;14.630;2024-03-08T09:43:13;36.67;;;17.27;;
84373;SDS011;74563;52.206;14.630;2024-03-08T09:45:38;28.07;;;13.10;;
84373;SDS011;74563;52.206;14.630;2024-03-08T09:48:06;33.22;;;15.43;;
84373;SDS011;74563;52.206;14.630;2024-03-08T09:50:37;24.33;;;11.82;;
84373;SDS011;74563;52.206;14.630;2024-03-08T09:53:02;26.48;;;12.65;;
84373;SDS011;74563;52.206;14.630;2024-03-08T09:55:28;25.00;;;12.98;;
84373;SDS011;74563;52.206;14.630;2024-03-08T09:57:58;26.33;;;12.88;;
84373;SDS011;74563;52.206;14.630;2024-03-08T10:00:43;26.85;;;12.38;;
84373;SDS011;74563;52.206;14.630;2024-03-08T10:03:09;29.13;;;12.82;;
84373;SDS011;74563;52.206;14.630;2024-03-08T10:05:35;22.33;;;11.35;;
84373;SDS011;74563;52.206;14.630;2024-03-08T10:08:01;23.42;;;11.45;;
84373;SDS011;74563;52.206;14.630;2024-03-08T10:10:26;26.17;;;14.37;;
84373;SDS011;74563;52.206;14.630;2024-03-08T10:12:51;47.75;;;23.25;;
84373;SDS011;74563;52.206;14.630;2024-03-08T10:15:17;27.05;;;12.15;;
84373;SDS011;74563;52.206;14.630;2024-03-08T10:17:42;22.90;;;11.02;;
84373;SDS011;74563;52.206;14.630;2024-03-08T10:20:17;25.20;;;11.75;;
84373;SDS011;74563;52.206;14.630;2024-03-08T10:22:43;24.48;;;11.05;;
84373;SDS011;74563;52.206;14.630;2024-03-08T10:25:12;23.15;;;11.77;;
84373;SDS011;74563;52.206;14.630;2024-03-08T10:27:38;21.92;;;12.00;;
84373;SDS011;74563;52.206;14.630;2024-03-08T10:30:12;25.42;;;13.35;;
84373;SDS011;74563;52.206;14.630;2024-03-08T10:32:40;24.63;;;11.30;;
84373;SDS011;74563;52.206;14.630;2024-03-08T10:35:06;21.25;;;11.00;;
84373;SDS011;74563;52.206;14.630;2024-03-08T10:37:33;23.27;;;12.57;;
84373;SDS011;74563;52.206;14.630;2024-03-08T10:40:10;22.65;;;11.82;;
84373;SDS011;74563;52.206;14.630;2024-03-08T10:42:46;20.88;;;10.45;;
84373;SDS011;74563;52.206;14.630;2024-03-08T10:45:35;21.23;;;11.10;;
84373;SDS011;74563;52.206;14.630;2024-03-08T10:50:30;19.17;;;10.50;;
84373;SDS011;74563;52.206;14.630;2024-03-08T10:52:59;21.35;;;11.15;;
84373;SDS011;74563;52.206;14.630;2024-03-08T10:55:26;24.30;;;12.38;;
84373;SDS011;74563;52.206;14.630;2024-03-08T10:57:53;19.42;;;10.18;;
84373;SDS011;74563;52.206;14.630;2024-03-08T11:00:19;23.25;;;13.70;;
84373;SDS011;74563;52.206;14.630;2024-03-08T11:08:18;20.10;;;10.85;;
84373;SDS011;74563;52.206;14.630;2024-03-08T11:10:46;18.48;;;9.43;;
84373;SDS011;74563;52.206;14.630;2024-03-08T11:15:57;17.63;;;9.02;;
84373;SDS011;74563;52.206;14.630;2024-03-08T11:18:25;16.60;;;8.85;;
84373;SDS011;74563;52.206;14.630;2024-03-08T11:20:53;20.83;;;9.98;;
84373;SDS011;74563;52.206;14.630;2024-03-08T11:23:21;20.95;;;10.60;;
84373;SDS011;74563;52.206;14.630;2024-03-08T11:25:47;17.55;;;9.75;;
84373;SDS011;74563;52.206;14.630;2024-03-08T11:28:18;24.63;;;11.05;;
84373;SDS011;74563;52.206;14.630;2024-03-08T11:33:24;19.00;;;10.38;;
84373;SDS011;74563;52.206;14.630;2024-03-08T11:35:52;19.83;;;10.63;;
84373;SDS011;74563;52.206;14.630;2024-03-08T11:38:17;18.83;;;11.40;;
84373;SDS011;74563;52.206;14.630;2024-03-08T11:40:45;19.20;;;10.40;;
84373;SDS011;74563;52.206;14.630;2024-03-08T11:43:11;19.45;;;9.63;;
84373;SDS011;74563;52.206;14.630;2024-03-08T11:45:36;18.30;;;9.83;;
84373;SDS011;74563;52.206;14.630;2024-03-08T11:48:04;19.38;;;10.75;;
84373;SDS011;74563;52.206;14.630;2024-03-08T11:50:30;20.60;;;10.18;;
84373;SDS011;74563;52.206;14.630;2024-03-08T11:53:00;20.35;;;9.95;;
84373;SDS011;74563;52.206;14.630;2024-03-08T11:55:29;19.63;;;10.20;;
84373;SDS011;74563;52.206;14.630;2024-03-08T11:58:02;19.40;;;8.93;;
84373;SDS011;74563;52.206;14.630;2024-03-08T12:00:28;17.92;;;9.98;;
84373;SDS011;74563;52.206;14.630;2024-03-08T12:03:03;19.42;;;9.95;;
84373;SDS011;74563;52.206;14.630;2024-03-08T12:05:35;22.60;;;11.00;;
84373;SDS011;74563;52.206;14.630;2024-03-08T12:08:04;22.30;;;10.80;;
84373;SDS011;74563;52.206;14.630;2024-03-08T12:10:34;21.58;;;10.45;;
84373;SDS011;74563;52.206;14.630;2024-03-08T12:13:00;38.65;;;19.83;;
84373;SDS011;74563;52.206;14.630;2024-03-08T12:15:25;20.80;;;11.23;;
84373;SDS011;74563;52.206;14.630;2024-03-08T12:17:52;21.23;;;11.07;;
84373;SDS011;74563;52.206;14.630;2024-03-08T12:22:50;19.50;;;10.63;;
84373;SDS011;74563;52.206;14.630;2024-03-08T12:25:21;28.15;;;15.40;;
84373;SDS011;74563;52.206;14.630;2024-03-08T12:27:47;18.33;;;10.65;;
84373;SDS011;74563;52.206;14.630;2024-03-08T12:30:19;22.15;;;12.20;;
84373;SDS011;74563;52.206;14.630;2024-03-08T12:32:55;20.98;;;10.35;;
84373;SDS011;74563;52.206;14.630;2024-03-08T12:35:22;24.88;;;12.27;;
84373;SDS011;74563;52.206;14.630;2024-03-08T12:37:50;21.02;;;10.77;;
84373;SDS011;74563;52.206;14.630;2024-03-08T12:40:18;23.67;;;12.27;;
84373;SDS011;74563;52.206;14.630;2024-03-08T12:42:47;19.98;;;10.77;;
84373;SDS011;74563;52.206;14.630;2024-03-08T12:45:13;19.60;;;11.10;;
84373;SDS011;74563;52.206;14.630;2024-03-08T12:47:39;18.10;;;9.35;;
84373;SDS011;74563;52.206;14.630;2024-03-08T12:50:07;21.27;;;10.73;;
84373;SDS011;74563;52.206;14.630;2024-03-08T12:52:33;17.73;;;10.05;;
84373;SDS011;74563;52.206;14.630;2024-03-08T12:54:59;19.75;;;10.63;;
84373;SDS011;74563;52.206;14.630;2024-03-08T12:57:28;24.15;;;12.15;;
84373;SDS011;74563;52.206;14.630;2024-03-08T12:59:54;23.42;;;12.00;;
84373;SDS011;74563;52.206;14.630;2024-03-08T13:02:19;19.13;;;10.63;;
84373;SDS011;74563;52.206;14.630;2024-03-08T13:04:46;17.90;;;9.43;;
84373;SDS011;74563;52.206;14.630;2024-03-08T13:07:20;22.52;;;12.60;;
84373;SDS011;74563;52.206;14.630;2024-03-08T13:09:46;19.40;;;10.43;;
84373;SDS011;74563;52.206;14.630;2024-03-08T13:12:11;20.88;;;10.68;;
84373;SDS011;74563;52.206;14.630;2024-03-08T13:14:36;20.17;;;9.17;;
84373;SDS011;74563;52.206;14.630;2024-03-08T13:17:02;19.70;;;10.53;;
84373;SDS011;74563;52.206;14.630;2024-03-08T13:19:29;20.33;;;10.23;;
84373;SDS011;74563;52.206;14.630;2024-03-08T13:21:55;20.52;;;10.98;;
84373;SDS011;74563;52.206;14.630;2024-03-08T13:24:21;21.65;;;10.68;;
84373;SDS011;74563;52.206;14.630;2024-03-08T13:26:47;17.65;;;9.57;;
84373;SDS011;74563;52.206;14.630;2024-03-08T13:29:12;18.10;;;9.23;;
84373;SDS011;74563;52.206;14.630;2024-03-08T13:31:39;26.85;;;15.10;;
84373;SDS011;74563;52.206;14.630;2024-03-08T13:34:05;20.23;;;10.05;;
84373;SDS011;74563;52.206;14.630;2024-03-08T13:36:30;20.45;;;10.48;;
84373;SDS011;74563;52.206;14.630;2024-03-08T13:39:04;22.77;;;11.90;;
84373;SDS011;74563;52.206;14.630;2024-03-08T13:41:35;21.70;;;10.82;;
84373;SDS011;74563;52.206;14.630;2024-03-08T13:44:00;18.40;;;10.30;;
84373;SDS011;74563;52.206;14.630;2024-03-08T13:46:26;19.67;;;9.97;;
84373;SDS011;74563;52.206;14.630;2024-03-08T13:48:54;17.83;;;9.82;;
84373;SDS011;74563;52.206;14.630;2024-03-08T13:51:19;22.87;;;11.73;;
84373;SDS011;74563;52.206;14.630;2024-03-08T13:53:47;18.90;;;9.25;;
84373;SDS011;74563;52.206;14.630;2024-03-08T13:56:12;19.93;;;10.63;;
84373;SDS011;74563;52.206;14.630;2024-03-08T13:58:39;20.60;;;11.20;;
84373;SDS011;74563;52.206;14.630;2024-03-08T14:01:05;20.35;;;11.82;;
84373;SDS011;74563;52.206;14.630;2024-03-08T14:03:36;18.52;;;10.35;;
84373;SDS011;74563;52.206;14.630;2024-03-08T14:06:01;20.33;;;11.25;;
84373;SDS011;74563;52.206;14.630;2024-03-08T14:08:28;23.23;;;12.70;;
84373;SDS011;74563;52.206;14.630;2024-03-08T14:10:54;19.03;;;10.53;;
84373;SDS011;74563;52.206;14.630;2024-03-08T14:15:44;20.53;;;11.03;;
84373;SDS011;74563;52.206;14.630;2024-03-08T14:18:11;17.40;;;9.77;;
84373;SDS011;74563;52.206;14.630;2024-03-08T14:20:38;21.40;;;10.75;;
84373;SDS011;74563;52.206;14.630;2024-03-08T14:23:03;21.05;;;12.13;;
84373;SDS011;74563;52.206;14.630;2024-03-08T14:25:31;21.05;;;12.25;;
84373;SDS011;74563;52.206;14.630;2024-03-08T14:27:56;20.83;;;11.60;;
84373;SDS011;74563;52.206;14.630;2024-03-08T14:30:28;24.73;;;12.23;;
84373;SDS011;74563;52.206;14.630;2024-03-08T14:33:01;19.52;;;11.60;;
84373;SDS011;74563;52.206;14.630;2024-03-08T14:35:26;22.48;;;13.30;;
84373;SDS011;74563;52.206;14.630;2024-03-08T14:37:52;20.10;;;12.07;;
84373;SDS011;74563;52.206;14.630;2024-03-08T14:40:18;23.13;;;11.93;;
84373;SDS011;74563;52.206;14.630;2024-03-08T14:42:47;21.35;;;12.00;;